Time;durP1;ratioP1;P1;durP2;ratioP2;P2;SDS_P1;SDS_P2;PMS_P1;PMS_P2;Temp;Humidity;BMP_temperature;BMP_pressure;BME280_temperature;BME280_humidity;BME280_pressure;Samples;Min_cycle;Max_cycle;Signal;HPM_P1;HPM_P2
2022/08/14 00:02:04;;;;;;;8.02;5.07;;;;;;;;;;5012207;28;20220;-62
2022/08/14 00:04:30;;;;;;;8.57;5.05;;;;;;;;;;5011870;28;20220;-62
2022/08/14 00:06:55;;;;;;;8.40;5.32;;;;;;;;;;5010724;28;20856;-62
2022/08/14 00:09:20;;;;;;;9.57;5.72;;;;;;;;;;5011666;28;20240;-62
2022/08/14 00:11:46;;;;;;;10.27;6.30;;;;;;;;;;5011502;28;20270;-62
2022/08/14 00:14:11;;;;;;;6.05;4.90;;;;;;;;;;5011748;28;20291;-62
2022/08/14 00:16:36;;;;;;;7.65;5.55;;;;;;;;;;5011993;28;20635;-62
2022/08/14 00:19:02;;;;;;;10.80;5.70;;;;;;;;;;5010969;28;20219;-62
2022/08/14 00:21:27;;;;;;;6.78;5.10;;;;;;;;;;5012232;28;20667;-63
2022/08/14 00:23:53;;;;;;;7.78;5.60;;;;;;;;;;5012201;28;20231;-62
2022/08/14 00:26:18;;;;;;;9.05;5.30;;;;;;;;;;5010829;28;20311;-62
2022/08/14 00:28:44;;;;;;;7.10;5.40;;;;;;;;;;5012227;28;20295;-62
2022/08/14 00:31:09;;;;;;;8.65;5.35;;;;;;;;;;5011360;28;20223;-63
2022/08/14 00:33:34;;;;;;;7.53;5.75;;;;;;;;;;5011405;28;20219;-62
2022/08/14 00:36:00;;;;;;;9.50;5.57;;;;;;;;;;5012480;28;20213;-62
2022/08/14 00:38:25;;;;;;;6.80;5.82;;;;;;;;;;5011498;28;20220;-62
2022/08/14 00:40:50;;;;;;;7.15;5.88;;;;;;;;;;5011171;28;20235;-62
2022/08/14 00:43:15;;;;;;;8.30;5.35;;;;;;;;;;5012899;28;20232;-63
2022/08/14 00:45:41;;;;;;;7.32;5.60;;;;;;;;;;5015600;28;20303;-62
2022/08/14 00:48:06;;;;;;;7.72;5.78;;;;;;;;;;5013329;28;20216;-63
2022/08/14 00:50:32;;;;;;;9.13;5.60;;;;;;;;;;5015789;28;20263;-62
2022/08/14 00:52:58;;;;;;;7.68;5.40;;;;;;;;;;5015749;28;20219;-62
2022/08/14 00:55:24;;;;;;;9.82;6.03;;;;;;;;;;5014401;28;20208;-62
2022/08/14 00:58:29;;;;;;;10.23;5.82;;;;;;;;;;5015517;28;20209;-62
2022/08/14 01:00:35;;;;;;;7.63;5.50;;;;;;;;;;5008158;28;20234;-62
2022/08/14 01:03:00;;;;;;;7.40;6.32;;;;;;;;;;5014140;28;20274;-64
2022/08/14 01:05:26;;;;;;;7.45;5.82;;;;;;;;;;5015452;28;20220;-62
2022/08/14 01:07:53;;;;;;;9.00;6.13;;;;;;;;;;5014492;28;20266;-62
2022/08/14 01:10:18;;;;;;;8.73;5.97;;;;;;;;;;5014832;28;20232;-62
2022/08/14 01:12:43;;;;;;;7.68;5.88;;;;;;;;;;5015295;28;20240;-61
2022/08/14 01:15:09;;;;;;;8.30;6.20;;;;;;;;;;5012667;28;20619;-62
2022/08/14 01:23:02;;;;;;;14.93;5.72;;;;;;;;;;5014186;28;20584;-62
2022/08/14 01:25:27;;;;;;;7.80;6.18;;;;;;;;;;5015012;28;20240;-62
2022/08/14 01:27:57;;;;;;;7.70;6.28;;;;;;;;;;5015108;28;20219;-62
2022/08/14 01:30:25;;;;;;;9.48;6.60;;;;;;;;;;5013781;28;20680;-62
2022/08/14 01:32:50;;;;;;;7.80;5.85;;;;;;;;;;5013836;28;20358;-62
2022/08/14 01:35:16;;;;;;;9.73;6.15;;;;;;;;;;5013182;28;20687;-62
2022/08/14 01:37:43;;;;;;;7.50;6.07;;;;;;;;;;5014061;28;20259;-62
2022/08/14 01:40:09;;;;;;;8.55;6.22;;;;;;;;;;5014447;28;20212;-62
2022/08/14 01:42:34;;;;;;;7.35;6.00;;;;;;;;;;5014685;28;20282;-62
2022/08/14 01:45:00;;;;;;;9.00;5.85;;;;;;;;;;5014223;28;20805;-62
2022/08/14 01:47:26;;;;;;;11.23;6.57;;;;;;;;;;5014024;28;20216;-62
2022/08/14 01:49:53;;;;;;;8.15;5.97;;;;;;;;;;5014463;28;20220;-62
2022/08/14 01:52:20;;;;;;;8.30;6.60;;;;;;;;;;5013573;28;20299;-62
2022/08/14 01:54:45;;;;;;;10.88;6.10;;;;;;;;;;5013870;28;20217;-62
2022/08/14 01:57:12;;;;;;;9.43;6.03;;;;;;;;;;5013166;28;20220;-62
2022/08/14 01:59:39;;;;;;;8.70;6.57;;;;;;;;;;5014456;28;20580;-62
2022/08/14 02:02:11;;;;;;;8.20;6.05;;;;;;;;;;5013787;28;20221;-62
2022/08/14 02:04:36;;;;;;;9.35;6.20;;;;;;;;;;5013947;28;20221;-61
2022/08/14 02:07:02;;;;;;;7.47;6.30;;;;;;;;;;5013817;28;20714;-62
2022/08/14 02:09:29;;;;;;;9.65;6.45;;;;;;;;;;5014119;28;20266;-62
2022/08/14 02:11:55;;;;;;;9.65;6.57;;;;;;;;;;5013514;28;20239;-62
2022/08/14 02:14:21;;;;;;;10.55;6.43;;;;;;;;;;5014011;28;20667;-62
2022/08/14 02:16:49;;;;;;;8.52;6.18;;;;;;;;;;5014255;28;20213;-62
2022/08/14 02:19:15;;;;;;;7.80;5.90;;;;;;;;;;5012931;28;20699;-61
2022/08/14 02:21:42;;;;;;;7.05;5.65;;;;;;;;;;5014183;28;20204;-61
2022/08/14 02:24:07;;;;;;;9.82;6.22;;;;;;;;;;5013869;28;20212;-62
2022/08/14 02:26:33;;;;;;;7.43;6.57;;;;;;;;;;5013214;28;20660;-62
2022/08/14 02:29:01;;;;;;;7.43;6.15;;;;;;;;;;5014057;28;20232;-61
2022/08/14 02:31:31;;;;;;;9.05;6.28;;;;;;;;;;5013490;28;20239;-62
2022/08/14 02:33:56;;;;;;;8.90;7.40;;;;;;;;;;5013311;28;20239;-62
2022/08/14 02:36:21;;;;;;;10.35;7.32;;;;;;;;;;5013501;28;20601;-62
2022/08/14 02:38:47;;;;;;;8.25;7.20;;;;;;;;;;5013842;28;20552;-62
2022/08/14 02:41:13;;;;;;;10.65;6.55;;;;;;;;;;5012424;28;20601;-62
2022/08/14 02:43:38;;;;;;;9.57;6.10;;;;;;;;;;5013812;28;20224;-62
2022/08/14 02:46:07;;;;;;;10.75;6.57;;;;;;;;;;5013249;28;20516;-62
2022/08/14 02:48:34;;;;;;;8.98;6.90;;;;;;;;;;5012501;28;20222;-62
2022/08/14 02:51:01;;;;;;;7.63;6.78;;;;;;;;;;5013549;28;20299;-62
2022/08/14 02:53:27;;;;;;;10.48;7.03;;;;;;;;;;5012546;28;20209;-62
2022/08/14 02:55:53;;;;;;;10.32;7.10;;;;;;;;;;5012215;28;20266;-62
2022/08/14 02:58:20;;;;;;;9.93;7.18;;;;;;;;;;5012944;28;20216;-62
2022/08/14 03:00:45;;;;;;;9.38;7.10;;;;;;;;;;5012776;28;20224;-62
2022/08/14 03:03:10;;;;;;;7.90;6.47;;;;;;;;;;5012901;28;20271;-62
2022/08/14 03:05:36;;;;;;;9.50;7.57;;;;;;;;;;5013255;28;20208;-62
2022/08/14 03:08:03;;;;;;;9.02;7.45;;;;;;;;;;5010844;28;20266;-64
2022/08/14 03:10:28;;;;;;;9.88;7.18;;;;;;;;;;4995742;28;20272;-60
2022/08/14 03:12:54;;;;;;;10.45;7.45;;;;;;;;;;5001773;28;20335;-61
2022/08/14 03:15:19;;;;;;;12.23;7.93;;;;;;;;;;4985022;28;20221;-61
2022/08/14 03:17:45;;;;;;;8.77;7.30;;;;;;;;;;4976308;28;20308;-61
2022/08/14 03:20:11;;;;;;;8.07;7.15;;;;;;;;;;4992885;28;20266;-61
2022/08/14 03:22:36;;;;;;;8.05;7.03;;;;;;;;;;4980439;28;20229;-61
2022/08/14 03:25:01;;;;;;;11.13;7.60;;;;;;;;;;4983573;28;20224;-61
2022/08/14 03:27:29;;;;;;;10.75;7.53;;;;;;;;;;4994373;28;20237;-61
2022/08/14 03:29:54;;;;;;;10.98;8.55;;;;;;;;;;5001984;28;20217;-61
2022/08/14 03:32:19;;;;;;;9.02;8.10;;;;;;;;;;5002140;28;20228;-61
2022/08/14 03:34:45;;;;;;;10.32;7.97;;;;;;;;;;5002963;28;20757;-61
2022/08/14 03:37:11;;;;;;;9.38;8.23;;;;;;;;;;5000359;28;20222;-61
2022/08/14 03:39:37;;;;;;;8.75;7.43;;;;;;;;;;4976198;28;20699;-61
2022/08/14 03:42:03;;;;;;;9.65;8.05;;;;;;;;;;4983907;28;20926;-61
2022/08/14 03:44:28;;;;;;;11.20;8.90;;;;;;;;;;4986565;28;20219;-61
2022/08/14 03:46:53;;;;;;;10.68;8.07;;;;;;;;;;4993064;28;20212;-61
2022/08/14 03:49:23;;;;;;;11.25;7.90;;;;;;;;;;5001902;28;20228;-61
2022/08/14 03:51:48;;;;;;;9.85;8.57;;;;;;;;;;4997246;28;20224;-61
2022/08/14 03:54:14;;;;;;;12.25;8.50;;;;;;;;;;4983027;28;20225;-61
2022/08/14 03:56:43;;;;;;;11.90;7.72;;;;;;;;;;4990496;28;20220;-61
2022/08/14 03:59:12;;;;;;;9.50;8.50;;;;;;;;;;5002118;28;20260;-61
2022/08/14 04:01:38;;;;;;;9.23;8.25;;;;;;;;;;4995967;28;20235;-61
2022/08/14 04:04:05;;;;;;;9.98;8.63;;;;;;;;;;4993597;28;20248;-61
2022/08/14 04:06:30;;;;;;;10.05;8.23;;;;;;;;;;4994006;28;20683;-61
2022/08/14 04:08:56;;;;;;;12.10;9.00;;;;;;;;;;4982030;28;20773;-61
2022/08/14 04:11:21;;;;;;;12.43;8.95;;;;;;;;;;4982078;28;20240;-62
2022/08/14 04:13:48;;;;;;;10.82;8.95;;;;;;;;;;5002107;28;20208;-62
2022/08/14 04:16:14;;;;;;;11.88;8.85;;;;;;;;;;5002122;28;20701;-62
2022/08/14 04:18:40;;;;;;;11.80;8.80;;;;;;;;;;4995170;28;20243;-64
2022/08/14 04:21:05;;;;;;;10.73;8.95;;;;;;;;;;5004810;28;20418;-64
2022/08/14 04:23:32;;;;;;;12.10;8.85;;;;;;;;;;5001545;28;20231;-63
2022/08/14 04:25:57;;;;;;;13.40;9.95;;;;;;;;;;4978313;28;20282;-63
2022/08/14 04:28:23;;;;;;;13.82;9.10;;;;;;;;;;4978225;28;20688;-63
2022/08/14 04:30:49;;;;;;;10.30;9.02;;;;;;;;;;4984846;28;20648;-63
2022/08/14 04:33:15;;;;;;;12.73;9.30;;;;;;;;;;4989313;28;20235;-62
2022/08/14 04:35:41;;;;;;;11.15;9.52;;;;;;;;;;4987618;28;20220;-62
2022/08/14 04:43:35;;;;;;;11.30;9.05;;;;;;;;;;4987996;28;20266;-62
2022/08/14 04:46:02;;;;;;;11.40;9.18;;;;;;;;;;4982695;28;20217;-63
2022/08/14 04:48:27;;;;;;;12.88;8.82;;;;;;;;;;4979049;28;20209;-63
2022/08/14 04:50:54;;;;;;;11.05;9.18;;;;;;;;;;4979842;28;20219;-62
2022/08/14 04:53:20;;;;;;;11.13;9.82;;;;;;;;;;4984207;28;20296;-62
2022/08/14 04:55:47;;;;;;;11.95;10.30;;;;;;;;;;4986666;28;20217;-62
2022/08/14 04:58:15;;;;;;;11.75;9.80;;;;;;;;;;5000914;28;20206;-63
2022/08/14 05:00:40;;;;;;;10.55;9.30;;;;;;;;;;4988252;28;20246;-62
2022/08/14 05:03:06;;;;;;;10.38;9.32;;;;;;;;;;4985991;28;20232;-62
2022/08/14 05:05:31;;;;;;;10.70;8.30;;;;;;;;;;5003933;28;20688;-62
2022/08/14 05:08:06;;;;;;;11.07;8.57;;;;;;;;;;5002474;28;20749;-62
2022/08/14 05:10:32;;;;;;;10.57;9.05;;;;;;;;;;4996161;28;20220;-61
2022/08/14 05:12:57;;;;;;;12.48;9.20;;;;;;;;;;4996697;28;20213;-61
2022/08/14 05:15:22;;;;;;;11.88;8.55;;;;;;;;;;4979299;28;20275;-62
2022/08/14 05:17:48;;;;;;;12.48;9.50;;;;;;;;;;4987464;28;20390;-69
2022/08/14 05:20:13;;;;;;;11.98;9.18;;;;;;;;;;5003544;28;20216;-66
2022/08/14 05:22:39;;;;;;;10.43;8.93;;;;;;;;;;4986169;28;20244;-68
2022/08/14 05:25:05;;;;;;;11.35;9.10;;;;;;;;;;4987836;28;20607;-69
2022/08/14 05:27:31;;;;;;;11.35;9.90;;;;;;;;;;4988184;28;20344;-69
2022/08/14 05:29:56;;;;;;;13.90;10.30;;;;;;;;;;4985203;28;20221;-68
2022/08/14 05:32:22;;;;;;;10.70;9.60;;;;;;;;;;4981287;28;20645;-68
2022/08/14 05:34:47;;;;;;;12.70;11.02;;;;;;;;;;4980678;28;20511;-68
2022/08/14 05:37:13;;;;;;;11.95;9.85;;;;;;;;;;4978221;28;20867;-68
2022/08/14 05:39:40;;;;;;;13.43;10.35;;;;;;;;;;5000128;28;20213;-65
2022/08/14 05:42:05;;;;;;;10.93;9.13;;;;;;;;;;5000441;28;20256;-67
2022/08/14 05:44:31;;;;;;;10.98;9.77;;;;;;;;;;5004293;28;20232;-71
2022/08/14 05:46:56;;;;;;;10.85;9.73;;;;;;;;;;5004683;28;20668;-69
2022/08/14 05:49:22;;;;;;;10.85;9.75;;;;;;;;;;4993811;28;20223;-69
2022/08/14 05:51:47;;;;;;;12.50;10.63;;;;;;;;;;4985775;28;20722;-69
2022/08/14 05:54:12;;;;;;;12.98;10.65;;;;;;;;;;4992353;28;20219;-68
2022/08/14 05:56:38;;;;;;;11.15;9.93;;;;;;;;;;4988611;28;20622;-69
2022/08/14 05:59:04;;;;;;;11.90;10.23;;;;;;;;;;4980117;28;20694;-69
2022/08/14 06:01:29;;;;;;;11.80;10.18;;;;;;;;;;4988065;28;20219;-68
2022/08/14 06:03:55;;;;;;;11.15;10.00;;;;;;;;;;4994791;28;20715;-68
2022/08/14 06:06:20;;;;;;;12.93;11.52;;;;;;;;;;4994976;28;20250;-68
2022/08/14 06:08:45;;;;;;;12.00;10.80;;;;;;;;;;5004602;28;20591;-67
2022/08/14 06:11:11;;;;;;;13.00;10.45;;;;;;;;;;4999238;28;20213;-66
2022/08/14 06:13:38;;;;;;;12.02;10.88;;;;;;;;;;4994526;28;20220;-67
2022/08/14 06:16:03;;;;;;;11.88;10.70;;;;;;;;;;5000102;28;20635;-68
2022/08/14 06:18:29;;;;;;;14.75;12.13;;;;;;;;;;4989036;28;20237;-68
2022/08/14 06:20:54;;;;;;;13.60;11.20;;;;;;;;;;4976922;28;20213;-68
2022/08/14 06:23:19;;;;;;;12.15;10.68;;;;;;;;;;4981142;28;20246;-67
2022/08/14 06:25:45;;;;;;;13.38;11.55;;;;;;;;;;4986520;28;20311;-68
2022/08/14 06:28:17;;;;;;;13.90;11.80;;;;;;;;;;4984578;28;20217;-66
2022/08/14 06:30:42;;;;;;;12.65;11.32;;;;;;;;;;4985017;28;20217;-67
2022/08/14 06:33:08;;;;;;;13.32;11.63;;;;;;;;;;4983569;28;20217;-67
2022/08/14 06:35:33;;;;;;;12.25;10.98;;;;;;;;;;5003749;28;20251;-67
2022/08/14 06:37:59;;;;;;;12.88;11.50;;;;;;;;;;4996971;28;20209;-67
2022/08/14 06:40:26;;;;;;;15.13;11.15;;;;;;;;;;4975849;28;20209;-66
2022/08/14 06:42:52;;;;;;;13.52;12.23;;;;;;;;;;4994979;28;20548;-67
2022/08/14 06:45:17;;;;;;;13.48;11.90;;;;;;;;;;4995706;28;21067;-67
2022/08/14 06:47:44;;;;;;;17.05;13.40;;;;;;;;;;4984741;28;20209;-67
2022/08/14 06:50:10;;;;;;;13.07;11.63;;;;;;;;;;4983637;28;20603;-67
2022/08/14 06:52:36;;;;;;;12.57;11.27;;;;;;;;;;4983875;28;20571;-67
2022/08/14 06:55:01;;;;;;;14.95;10.77;;;;;;;;;;5002567;28;20213;-67
2022/08/14 06:57:34;;;;;;;18.25;12.75;;;;;;;;;;5003836;28;20247;-67
2022/08/14 06:59:59;;;;;;;12.40;11.10;;;;;;;;;;4987840;28;20547;-67
2022/08/14 07:07:52;;;;;;;15.75;12.32;;;;;;;;;;5012501;28;20274;-67
2022/08/14 07:10:17;;;;;;;14.80;10.48;;;;;;;;;;5012706;28;20216;-66
2022/08/14 07:12:43;;;;;;;15.23;12.38;;;;;;;;;;5013199;28;20214;-67
2022/08/14 07:15:08;;;;;;;15.57;12.57;;;;;;;;;;5012122;28;20686;-65
2022/08/14 07:17:42;;;;;;;13.52;12.23;;;;;;;;;;5012977;28;20615;-66
2022/08/14 07:20:08;;;;;;;13.65;11.32;;;;;;;;;;4991642;28;20217;-66
2022/08/14 07:22:34;;;;;;;12.73;10.63;;;;;;;;;;4992720;28;20228;-66
2022/08/14 07:24:59;;;;;;;12.68;11.27;;;;;;;;;;4993992;28;20213;-66
2022/08/14 07:27:24;;;;;;;11.93;10.18;;;;;;;;;;4991571;28;20214;-66
2022/08/14 07:29:50;;;;;;;11.38;10.07;;;;;;;;;;4992746;28;20740;-66
2022/08/14 07:32:15;;;;;;;10.85;9.80;;;;;;;;;;4992815;28;20215;-66
2022/08/14 07:34:40;;;;;;;13.60;9.25;;;;;;;;;;4992336;28;20205;-66
2022/08/14 07:37:05;;;;;;;13.23;9.57;;;;;;;;;;4992654;28;20221;-66
2022/08/14 07:39:31;;;;;;;12.25;9.27;;;;;;;;;;5012117;28;20216;-66
2022/08/14 07:41:56;;;;;;;12.77;10.15;;;;;;;;;;5011729;28;20217;-66
2022/08/14 07:44:22;;;;;;;13.02;11.35;;;;;;;;;;5012268;28;20208;-66
2022/08/14 07:46:47;;;;;;;10.93;9.75;;;;;;;;;;5012503;28;20235;-66
2022/08/14 07:49:13;;;;;;;10.63;9.52;;;;;;;;;;5011407;28;20223;-66
2022/08/14 07:51:38;;;;;;;10.55;9.50;;;;;;;;;;5012566;28;20295;-66
2022/08/14 07:54:04;;;;;;;10.05;8.23;;;;;;;;;;5011651;28;20590;-65
2022/08/14 07:56:29;;;;;;;10.85;8.80;;;;;;;;;;5011719;28;20235;-66
2022/08/14 07:58:55;;;;;;;8.95;8.00;;;;;;;;;;5012082;28;20212;-68
2022/08/14 08:01:20;;;;;;;10.15;9.15;;;;;;;;;;5011511;28;20224;-67
2022/08/14 08:03:46;;;;;;;11.50;8.77;;;;;;;;;;5009992;28;20262;-65
2022/08/14 08:06:11;;;;;;;9.32;7.85;;;;;;;;;;5011337;28;20632;-66
2022/08/14 08:08:36;;;;;;;9.68;8.52;;;;;;;;;;5011897;28;20327;-69
2022/08/14 08:11:02;;;;;;;9.65;7.85;;;;;;;;;;5010755;28;20675;-65
2022/08/14 08:13:27;;;;;;;9.32;7.63;;;;;;;;;;5011563;28;20671;-69
2022/08/14 08:15:53;;;;;;;11.88;9.02;;;;;;;;;;5010959;28;20264;-70
2022/08/14 08:18:18;;;;;;;11.82;8.25;;;;;;;;;;5010895;28;20216;-68
2022/08/14 08:20:46;;;;;;;12.35;7.53;;;;;;;;;;5011683;28;20208;-70
2022/08/14 08:23:11;;;;;;;9.40;8.02;;;;;;;;;;5010499;28;20263;-67
2022/08/14 08:25:37;;;;;;;10.20;7.70;;;;;;;;;;5011462;28;20216;-69
2022/08/14 08:28:03;;;;;;;10.20;7.75;;;;;;;;;;5008648;28;20231;-69
2022/08/14 08:30:30;;;;;;;10.70;7.47;;;;;;;;;;5008951;28;20212;-70
2022/08/14 08:32:56;;;;;;;9.82;8.32;;;;;;;;;;5011000;28;20212;-69
2022/08/14 08:35:23;;;;;;;9.55;7.70;;;;;;;;;;5011622;28;20236;-68
2022/08/14 08:37:48;;;;;;;11.15;7.43;;;;;;;;;;5011791;28;20208;-71
2022/08/14 08:40:21;;;;;;;9.13;7.80;;;;;;;;;;5010743;28;20219;-71
2022/08/14 08:42:46;;;;;;;13.10;8.20;;;;;;;;;;5011827;28;20224;-67
2022/08/14 08:45:14;;;;;;;11.43;8.25;;;;;;;;;;5010495;28;20262;-67
2022/08/14 08:47:39;;;;;;;10.77;8.27;;;;;;;;;;5012131;28;20213;-68
2022/08/14 08:50:14;;;;;;;11.00;8.27;;;;;;;;;;5010274;28;20220;-65
2022/08/14 08:52:45;;;;;;;8.73;7.63;;;;;;;;;;5011112;28;20215;-66
2022/08/14 08:55:11;;;;;;;9.43;8.05;;;;;;;;;;5011565;28;20582;-65
2022/08/14 08:57:36;;;;;;;8.50;7.60;;;;;;;;;;5011937;28;20212;-65
2022/08/14 09:00:01;;;;;;;10.77;8.35;;;;;;;;;;5010416;28;20246;-65
2022/08/14 09:02:27;;;;;;;9.45;7.60;;;;;;;;;;5010497;28;20220;-65
2022/08/14 09:04:59;;;;;;;8.07;7.25;;;;;;;;;;5014300;28;20363;-65
2022/08/14 09:07:25;;;;;;;8.90;6.93;;;;;;;;;;5014222;28;20205;-65
2022/08/14 09:09:52;;;;;;;9.60;7.57;;;;;;;;;;5013736;28;20293;-66
2022/08/14 09:12:17;;;;;;;9.18;7.53;;;;;;;;;;5013644;28;20219;-68
2022/08/14 09:14:43;;;;;;;8.52;7.38;;;;;;;;;;5014456;28;20216;-66
2022/08/14 09:17:08;;;;;;;9.15;7.43;;;;;;;;;;5014886;28;20248;-66
2022/08/14 09:19:35;;;;;;;8.40;7.28;;;;;;;;;;5015222;28;20213;-65
2022/08/14 09:22:00;;;;;;;10.05;7.20;;;;;;;;;;5014179;28;20235;-66
2022/08/14 09:24:25;;;;;;;7.45;6.65;;;;;;;;;;5015023;28;20216;-65
2022/08/14 09:26:51;;;;;;;7.90;6.63;;;;;;;;;;5015420;28;20235;-66
2022/08/14 09:29:17;;;;;;;9.27;7.78;;;;;;;;;;5013851;28;20752;-65
2022/08/14 09:31:43;;;;;;;10.40;6.95;;;;;;;;;;5007668;28;20221;-65
2022/08/14 09:34:26;;;;;;;9.60;6.32;;;;;;;;;;4998206;28;20216;-65
2022/08/14 09:37:00;;;;;;;8.23;6.68;;;;;;;;;;4997365;28;20226;-65
2022/08/14 09:39:32;;;;;;;7.65;6.03;;;;;;;;;;4982798;28;20696;-65
2022/08/14 09:42:02;;;;;;;11.77;6.35;;;;;;;;;;4996473;28;20224;-65
2022/08/14 09:44:38;;;;;;;9.02;6.00;;;;;;;;;;5006656;28;20325;-65
2022/08/14 09:47:03;;;;;;;8.63;6.60;;;;;;;;;;4995116;28;20225;-65
2022/08/14 09:49:30;;;;;;;10.60;6.65;;;;;;;;;;4988653;28;20236;-65
2022/08/14 09:52:04;;;;;;;9.38;7.10;;;;;;;;;;4989208;28;20223;-65
2022/08/14 09:54:36;;;;;;;10.20;6.93;;;;;;;;;;5007267;28;20223;-65
2022/08/14 09:57:05;;;;;;;7.28;6.20;;;;;;;;;;4999738;28;20630;-65
2022/08/14 09:59:37;;;;;;;6.85;6.05;;;;;;;;;;4998240;28;20235;-65
2022/08/14 10:02:05;;;;;;;8.80;6.10;;;;;;;;;;4986134;28;20446;-65
2022/08/14 10:04:31;;;;;;;7.68;6.05;;;;;;;;;;4989145;28;20227;-65
2022/08/14 10:06:57;;;;;;;7.60;6.50;;;;;;;;;;4995377;28;20224;-65
2022/08/14 10:09:22;;;;;;;8.45;5.32;;;;;;;;;;5006451;28;20243;-65
2022/08/14 10:11:54;;;;;;;6.70;5.72;;;;;;;;;;5007563;28;20244;-65
2022/08/14 10:14:21;;;;;;;7.80;5.85;;;;;;;;;;4987946;28;20723;-65
2022/08/14 10:16:49;;;;;;;6.60;5.65;;;;;;;;;;5004840;28;20216;-65
2022/08/14 10:19:15;;;;;;;6.70;5.38;;;;;;;;;;5001271;28;20595;-66
2022/08/14 10:21:42;;;;;;;7.78;6.45;;;;;;;;;;4999436;28;20216;-64
2022/08/14 10:24:09;;;;;;;6.90;5.70;;;;;;;;;;4988401;28;20229;-64
2022/08/14 10:26:34;;;;;;;6.13;5.38;;;;;;;;;;5000019;28;20267;-65
2022/08/14 10:29:04;;;;;;;7.25;5.50;;;;;;;;;;4988563;28;20217;-65
2022/08/14 10:31:31;;;;;;;6.10;5.50;;;;;;;;;;5006059;28;20681;-65
2022/08/14 10:33:58;;;;;;;10.07;5.63;;;;;;;;;;5007802;28;20379;-65
2022/08/14 10:36:30;;;;;;;7.20;5.75;;;;;;;;;;5007030;28;20748;-65
2022/08/14 10:38:56;;;;;;;5.72;5.13;;;;;;;;;;4993146;28;20209;-65
2022/08/14 10:41:23;;;;;;;7.00;5.90;;;;;;;;;;4984128;28;20221;-65
2022/08/14 10:44:04;;;;;;;6.72;5.88;;;;;;;;;;4979736;28;20225;-65
2022/08/14 10:46:38;;;;;;;7.80;5.95;;;;;;;;;;4989952;28;20635;-65
2022/08/14 10:49:03;;;;;;;8.88;4.80;;;;;;;;;;5004467;28;20255;-64
2022/08/14 10:51:29;;;;;;;6.38;4.90;;;;;;;;;;5007386;28;20216;-65
2022/08/14 10:53:54;;;;;;;7.80;4.80;;;;;;;;;;4999662;28;20652;-65
2022/08/14 10:56:29;;;;;;;7.32;5.40;;;;;;;;;;4988044;28;22478;-65
2022/08/14 10:58:59;;;;;;;7.47;5.00;;;;;;;;;;5006061;28;20224;-65
2022/08/14 11:01:29;;;;;;;9.98;5.43;;;;;;;;;;4991006;28;20886;-65
2022/08/14 11:03:55;;;;;;;7.47;4.95;;;;;;;;;;4984124;28;20743;-64
2022/08/14 11:06:21;;;;;;;6.65;4.85;;;;;;;;;;4979366;28;20263;-64
2022/08/14 11:08:47;;;;;;;7.80;5.20;;;;;;;;;;4979354;28;20232;-65
2022/08/14 11:11:12;;;;;;;6.00;5.00;;;;;;;;;;5002195;28;20219;-65
2022/08/14 11:13:40;;;;;;;7.78;5.13;;;;;;;;;;4992985;28;20225;-65
2022/08/14 11:16:05;;;;;;;6.18;5.07;;;;;;;;;;5005809;28;20579;-64
2022/08/14 11:18:31;;;;;;;6.00;5.28;;;;;;;;;;5006893;28;20240;-65
2022/08/14 11:20:58;;;;;;;5.80;5.18;;;;;;;;;;5006190;28;20214;-65
2022/08/14 11:23:29;;;;;;;8.18;4.95;;;;;;;;;;5005978;28;20228;-65
2022/08/14 11:25:55;;;;;;;7.97;4.85;;;;;;;;;;5004514;28;20216;-65
2022/08/14 11:28:21;;;;;;;7.85;5.30;;;;;;;;;;5008986;28;20220;-65
2022/08/14 11:30:47;;;;;;;8.98;5.18;;;;;;;;;;5012264;28;20573;-66
2022/08/14 11:33:13;;;;;;;8.85;6.07;;;;;;;;;;5012480;28;20220;-64
2022/08/14 11:35:38;;;;;;;6.07;5.22;;;;;;;;;;5012300;28;20614;-65
2022/08/14 11:38:04;;;;;;;7.38;5.05;;;;;;;;;;5012365;28;20658;-64
2022/08/14 11:40:33;;;;;;;6.88;5.18;;;;;;;;;;5010690;28;20216;-65
2022/08/14 11:43:00;;;;;;;6.63;5.10;;;;;;;;;;4992318;28;20790;-65
2022/08/14 11:45:27;;;;;;;6.03;5.15;;;;;;;;;;4992230;28;20213;-65
2022/08/14 11:47:53;;;;;;;8.75;5.13;;;;;;;;;;5010597;28;20247;-65
2022/08/14 11:50:22;;;;;;;7.72;5.00;;;;;;;;;;5012143;28;20271;-65
2022/08/14 11:52:47;;;;;;;5.80;4.63;;;;;;;;;;5013286;28;20358;-65
2022/08/14 11:55:12;;;;;;;7.38;4.85;;;;;;;;;;5011132;28;20274;-65
2022/08/14 11:57:38;;;;;;;6.40;5.03;;;;;;;;;;5030690;28;20302;-65
2022/08/14 12:00:06;;;;;;;6.22;4.60;;;;;;;;;;5029537;28;20303;-65
2022/08/14 12:02:31;;;;;;;7.18;5.25;;;;;;;;;;5011809;28;20569;-65
2022/08/14 12:04:57;;;;;;;7.93;5.03;;;;;;;;;;5014912;28;20384;-65
2022/08/14 12:07:22;;;;;;;5.80;4.80;;;;;;;;;;5031482;28;20299;-65
2022/08/14 12:09:50;;;;;;;6.80;5.07;;;;;;;;;;5031234;28;20224;-65
2022/08/14 12:12:19;;;;;;;7.28;4.93;;;;;;;;;;5024138;28;20212;-65
2022/08/14 12:14:55;;;;;;;5.68;4.45;;;;;;;;;;5010239;28;20659;-65
2022/08/14 12:17:20;;;;;;;5.78;5.13;;;;;;;;;;5009497;28;20212;-65
2022/08/14 12:19:46;;;;;;;6.78;5.10;;;;;;;;;;5011386;28;20205;-65
2022/08/14 12:22:12;;;;;;;6.30;5.10;;;;;;;;;;5011696;28;20220;-65
2022/08/14 12:24:37;;;;;;;6.25;4.47;;;;;;;;;;5011643;28;20576;-65
2022/08/14 12:27:02;;;;;;;5.13;4.60;;;;;;;;;;5019450;28;20718;-64
2022/08/14 12:29:28;;;;;;;6.13;4.60;;;;;;;;;;5011468;28;20224;-65
2022/08/14 12:31:58;;;;;;;6.18;4.20;;;;;;;;;;5009741;28;20303;-65
2022/08/14 12:34:28;;;;;;;5.55;4.63;;;;;;;;;;5010712;28;20209;-64
2022/08/14 12:37:04;;;;;;;5.72;4.47;;;;;;;;;;5008617;28;20213;-64
2022/08/14 12:39:29;;;;;;;5.30;4.50;;;;;;;;;;5012972;28;20265;-64
2022/08/14 12:42:00;;;;;;;7.57;5.13;;;;;;;;;;5015609;28;20312;-64
2022/08/14 12:44:30;;;;;;;5.85;5.10;;;;;;;;;;5014340;28;20331;-64
2022/08/14 12:47:03;;;;;;;6.10;4.28;;;;;;;;;;5015851;28;20217;-64
2022/08/14 12:49:28;;;;;;;7.50;5.22;;;;;;;;;;5015539;28;20295;-64
2022/08/14 12:51:55;;;;;;;5.43;4.28;;;;;;;;;;5012828;28;20287;-64
2022/08/14 12:54:20;;;;;;;5.90;4.60;;;;;;;;;;5031032;28;20220;-63
2022/08/14 12:56:46;;;;;;;6.75;4.53;;;;;;;;;;5023971;28;20288;-62
2022/08/14 12:59:11;;;;;;;7.38;4.50;;;;;;;;;;5014079;28;20205;-63
2022/08/14 13:01:38;;;;;;;7.03;4.78;;;;;;;;;;5015440;28;20216;-63
2022/08/14 13:04:09;;;;;;;5.57;4.70;;;;;;;;;;5014993;28;20235;-63
2022/08/14 13:06:34;;;;;;;5.78;4.50;;;;;;;;;;5017573;28;20302;-62
2022/08/14 13:09:00;;;;;;;6.38;5.00;;;;;;;;;;5035219;28;20685;-63
2022/08/14 13:11:28;;;;;;;5.43;4.55;;;;;;;;;;5033935;28;20210;-63
2022/08/14 13:13:54;;;;;;;5.85;4.70;;;;;;;;;;5033664;28;20216;-63
2022/08/14 13:16:20;;;;;;;5.07;4.55;;;;;;;;;;5034632;28;20211;-63
2022/08/14 13:18:45;;;;;;;4.95;4.43;;;;;;;;;;5033614;28;20299;-64
2022/08/14 13:21:12;;;;;;;8.07;4.75;;;;;;;;;;5032649;28;20226;-63
2022/08/14 13:23:37;;;;;;;7.05;4.78;;;;;;;;;;5034586;28;20310;-64
2022/08/14 13:26:02;;;;;;;6.88;4.25;;;;;;;;;;5034491;28;20299;-64
2022/08/14 13:28:28;;;;;;;6.90;4.20;;;;;;;;;;5033254;28;20270;-64
2022/08/14 13:30:53;;;;;;;5.65;4.22;;;;;;;;;;5032988;28;20219;-62
2022/08/14 13:33:20;;;;;;;6.82;4.38;;;;;;;;;;5033909;28;20587;-64
2022/08/14 13:35:47;;;;;;;6.72;4.10;;;;;;;;;;5034254;28;20769;-64
2022/08/14 13:38:14;;;;;;;7.28;4.20;;;;;;;;;;5025687;28;20683;-62
2022/08/14 13:40:40;;;;;;;5.60;4.13;;;;;;;;;;5012672;28;20671;-63
2022/08/14 13:43:05;;;;;;;5.57;4.45;;;;;;;;;;5012780;28;20258;-65
2022/08/14 13:45:31;;;;;;;6.55;4.30;;;;;;;;;;5012858;28;20205;-63
2022/08/14 13:47:57;;;;;;;4.85;3.85;;;;;;;;;;5013992;28;20626;-64
2022/08/14 13:50:22;;;;;;;5.57;3.85;;;;;;;;;;5013451;28;20678;-64
2022/08/14 13:52:52;;;;;;;5.15;4.00;;;;;;;;;;5013208;28;20212;-64
2022/08/14 13:55:18;;;;;;;6.90;4.03;;;;;;;;;;5013510;28;20209;-61
2022/08/14 13:57:44;;;;;;;5.32;4.00;;;;;;;;;;5014037;28;20287;-61
2022/08/14 14:00:11;;;;;;;6.70;3.90;;;;;;;;;;5014157;28;20216;-61
2022/08/14 14:02:38;;;;;;;5.32;4.05;;;;;;;;;;5013678;28;20315;-61
2022/08/14 14:05:04;;;;;;;5.53;3.78;;;;;;;;;;5014037;28;20322;-62
2022/08/14 14:07:29;;;;;;;6.43;3.90;;;;;;;;;;5014387;28;20369;-62
2022/08/14 14:09:55;;;;;;;5.25;3.63;;;;;;;;;;5012110;28;20691;-61
2022/08/14 14:12:20;;;;;;;6.35;4.38;;;;;;;;;;5013625;28;20660;-62
2022/08/14 14:14:46;;;;;;;6.15;4.18;;;;;;;;;;5012967;28;20252;-62
2022/08/14 14:17:13;;;;;;;6.28;3.97;;;;;;;;;;5011784;28;20233;-62
2022/08/14 14:19:40;;;;;;;5.68;4.15;;;;;;;;;;5013998;28;20212;-61
2022/08/14 14:22:05;;;;;;;6.93;4.28;;;;;;;;;;5010809;28;20216;-62
2022/08/14 14:24:31;;;;;;;5.30;4.30;;;;;;;;;;5013262;28;20224;-61
2022/08/14 14:26:59;;;;;;;5.10;4.20;;;;;;;;;;5011636;28;20308;-61
2022/08/14 14:29:24;;;;;;;5.88;4.43;;;;;;;;;;5011916;28;20209;-61
2022/08/14 14:31:50;;;;;;;4.82;4.28;;;;;;;;;;5013316;28;20267;-61
2022/08/14 14:34:15;;;;;;;7.38;4.10;;;;;;;;;;5012295;28;20247;-61
2022/08/14 14:36:42;;;;;;;6.25;4.20;;;;;;;;;;5013198;28;20208;-61
2022/08/14 14:39:07;;;;;;;6.47;4.43;;;;;;;;;;5011830;28;20204;-62
2022/08/14 14:41:33;;;;;;;4.95;4.32;;;;;;;;;;5013605;28;20307;-62
2022/08/14 14:43:59;;;;;;;6.10;4.50;;;;;;;;;;5012523;28;20232;-61
2022/08/14 14:46:24;;;;;;;6.68;4.07;;;;;;;;;;5013348;28;20771;-61
2022/08/14 14:48:50;;;;;;;4.93;4.13;;;;;;;;;;5013429;28;20380;-62